sensor_id;sensor_type;location;lat;lon;timestamp;P1;durP1;ratioP1;P2;durP2;ratioP2
6787;SDS011;3431;47.966;10.268;2024-01-06T00:00:10;2.00;;;1.90;;
6787;SDS011;3431;47.966;10.268;2024-01-06T00:00:33;2.53;;;1.85;;
6787;SDS011;3431;47.966;10.268;2024-01-06T00:00:56;3.17;;;2.28;;
6787;SDS011;3431;47.966;10.268;2024-01-06T00:01:17;2.28;;;2.08;;
6787;SDS011;3431;47.966;10.268;2024-01-06T00:01:39;2.28;;;2.10;;
6787;SDS011;3431;47.966;10.268;2024-01-06T00:02:00;2.13;;;2.00;;
6787;SDS011;3431;47.966;10.268;2024-01-06T00:02:22;2.30;;;2.10;;
6787;SDS011;3431;47.966;10.268;2024-01-06T00:02:45;2.00;;;1.80;;
6787;SDS011;3431;47.966;10.268;2024-01-06T00:03:06;1.95;;;1.80;;
6787;SDS011;3431;47.966;10.268;2024-01-06T00:03:28;2.15;;;2.00;;
6787;SDS011;3431;47.966;10.268;2024-01-06T00:03:49;2.10;;;2.00;;
6787;SDS011;3431;47.966;10.268;2024-01-06T00:04:11;2.10;;;2.00;;
6787;SDS011;3431;47.966;10.268;2024-01-06T00:04:33;2.20;;;2.10;;
6787;SDS011;3431;47.966;10.268;2024-01-06T00:04:55;2.35;;;2.25;;
6787;SDS011;3431;47.966;10.268;2024-01-06T00:05:16;2.25;;;2.10;;
6787;SDS011;3431;47.966;10.268;2024-01-06T00:05:38;2.05;;;1.90;;
6787;SDS011;3431;47.966;10.268;2024-01-06T00:05:59;2.20;;;2.00;;
6787;SDS011;3431;47.966;10.268;2024-01-06T00:06:22;1.90;;;1.80;;
6787;SDS011;3431;47.966;10.268;2024-01-06T00:06:43;2.03;;;1.92;;
6787;SDS011;3431;47.966;10.268;2024-01-06T00:07:05;2.00;;;1.90;;
6787;SDS011;3431;47.966;10.268;2024-01-06T00:07:26;2.40;;;1.90;;
6787;SDS011;3431;47.966;10.268;2024-01-06T00:07:48;2.20;;;2.10;;
6787;SDS011;3431;47.966;10.268;2024-01-06T00:08:10;2.42;;;2.22;;
6787;SDS011;3431;47.966;10.268;2024-01-06T00:08:32;2.17;;;1.98;;
6787;SDS011;3431;47.966;10.268;2024-01-06T00:08:53;2.08;;;1.90;;
6787;SDS011;3431;47.966;10.268;2024-01-06T00:09:15;2.15;;;1.95;;
6787;SDS011;3431;47.966;10.268;2024-01-06T00:09:37;1.98;;;1.88;;
6787;SDS011;3431;47.966;10.268;2024-01-06T00:09:58;2.00;;;1.85;;
6787;SDS011;3431;47.966;10.268;2024-01-06T00:10:21;2.00;;;1.90;;
6787;SDS011;3431;47.966;10.268;2024-01-06T00:10:42;1.92;;;1.83;;
6787;SDS011;3431;47.966;10.268;2024-01-06T00:11:04;1.92;;;1.83;;
6787;SDS011;3431;47.966;10.268;2024-01-06T00:11:25;1.90;;;1.80;;
6787;SDS011;3431;47.966;10.268;2024-01-06T00:11:47;2.00;;;1.90;;
6787;SDS011;3431;47.966;10.268;2024-01-06T00:12:08;2.15;;;1.95;;
6787;SDS011;3431;47.966;10.268;2024-01-06T00:12:31;2.03;;;1.92;;
6787;SDS011;3431;47.966;10.268;2024-01-06T00:12:52;1.92;;;1.83;;
6787;SDS011;3431;47.966;10.268;2024-01-06T00:13:14;2.10;;;1.98;;
6787;SDS011;3431;47.966;10.268;2024-01-06T00:13:35;2.00;;;1.90;;
6787;SDS011;3431;47.966;10.268;2024-01-06T00:13:58;1.90;;;1.80;;
6787;SDS011;3431;47.966;10.268;2024-01-06T00:14:21;1.90;;;1.80;;
6787;SDS011;3431;47.966;10.268;2024-01-06T00:14:42;2.25;;;2.05;;
6787;SDS011;3431;47.966;10.268;2024-01-06T00:15:06;2.20;;;2.00;;
6787;SDS011;3431;47.966;10.268;2024-01-06T00:15:28;2.08;;;1.98;;
6787;SDS011;3431;47.966;10.268;2024-01-06T00:15:49;2.10;;;1.90;;
6787;SDS011;3431;47.966;10.268;2024-01-06T00:16:12;1.90;;;1.80;;
6787;SDS011;3431;47.966;10.268;2024-01-06T00:16:33;1.90;;;1.80;;
6787;SDS011;3431;47.966;10.268;2024-01-06T00:16:55;1.65;;;1.55;;
6787;SDS011;3431;47.966;10.268;2024-01-06T00:17:16;1.92;;;1.80;;
6787;SDS011;3431;47.966;10.268;2024-01-06T00:17:38;1.60;;;1.50;;
6787;SDS011;3431;47.966;10.268;2024-01-06T00:18:02;1.70;;;1.60;;
6787;SDS011;3431;47.966;10.268;2024-01-06T00:18:23;2.00;;;1.80;;
6787;SDS011;3431;47.966;10.268;2024-01-06T00:18:45;2.50;;;1.70;;
6787;SDS011;3431;47.966;10.268;2024-01-06T00:19:06;1.75;;;1.65;;
6787;SDS011;3431;47.966;10.268;2024-01-06T00:19:28;1.80;;;1.70;;
6787;SDS011;3431;47.966;10.268;2024-01-06T00:19:49;1.70;;;1.60;;
6787;SDS011;3431;47.966;10.268;2024-01-06T00:20:11;1.50;;;1.40;;
6787;SDS011;3431;47.966;10.268;2024-01-06T00:20:34;1.80;;;1.67;;
6787;SDS011;3431;47.966;10.268;2024-01-06T00:20:55;1.58;;;1.48;;
6787;SDS011;3431;47.966;10.268;2024-01-06T00:21:17;1.40;;;1.30;;
6787;SDS011;3431;47.966;10.268;2024-01-06T00:21:38;1.50;;;1.30;;
6787;SDS011;3431;47.966;10.268;2024-01-06T00:22:00;1.52;;;1.42;;
6787;SDS011;3431;47.966;10.268;2024-01-06T00:22:21;2.13;;;1.50;;
6787;SDS011;3431;47.966;10.268;2024-01-06T00:22:44;2.05;;;1.52;;
6787;SDS011;3431;47.966;10.268;2024-01-06T00:23:06;2.25;;;1.60;;
6787;SDS011;3431;47.966;10.268;2024-01-06T00:23:27;1.70;;;1.60;;
6787;SDS011;3431;47.966;10.268;2024-01-06T00:23:49;1.60;;;1.50;;
6787;SDS011;3431;47.966;10.268;2024-01-06T00:24:10;1.50;;;1.30;;
6787;SDS011;3431;47.966;10.268;2024-01-06T00:24:32;1.20;;;1.20;;
6787;SDS011;3431;47.966;10.268;2024-01-06T00:24:54;1.30;;;1.30;;
6787;SDS011;3431;47.966;10.268;2024-01-06T00:25:16;1.80;;;1.55;;
6787;SDS011;3431;47.966;10.268;2024-01-06T00:25:37;1.92;;;1.60;;
6787;SDS011;3431;47.966;10.268;2024-01-06T00:25:59;1.50;;;1.40;;
6787;SDS011;3431;47.966;10.268;2024-01-06T00:26:20;1.50;;;1.40;;
6787;SDS011;3431;47.966;10.268;2024-01-06T00:26:42;1.70;;;1.60;;
6787;SDS011;3431;47.966;10.268;2024-01-06T00:27:04;1.50;;;1.40;;
6787;SDS011;3431;47.966;10.268;2024-01-06T00:27:25;1.58;;;1.48;;
6787;SDS011;3431;47.966;10.268;2024-01-06T00:27:47;1.75;;;1.65;;
6787;SDS011;3431;47.966;10.268;2024-01-06T00:28:09;1.60;;;1.50;;
6787;SDS011;3431;47.966;10.268;2024-01-06T00:28:31;1.52;;;1.42;;
6787;SDS011;3431;47.966;10.268;2024-01-06T00:28:54;1.45;;;1.40;;
6787;SDS011;3431;47.966;10.268;2024-01-06T00:29:17;1.50;;;1.40;;
6787;SDS011;3431;47.966;10.268;2024-01-06T00:29:38;1.50;;;1.40;;
6787;SDS011;3431;47.966;10.268;2024-01-06T00:30:00;1.40;;;1.30;;
6787;SDS011;3431;47.966;10.268;2024-01-06T00:30:21;1.25;;;1.23;;
6787;SDS011;3431;47.966;10.268;2024-01-06T00:30:43;1.60;;;1.50;;
6787;SDS011;3431;47.966;10.268;2024-01-06T00:31:06;1.57;;;1.47;;
6787;SDS011;3431;47.966;10.268;2024-01-06T00:31:27;1.50;;;1.40;;
6787;SDS011;3431;47.966;10.268;2024-01-06T00:31:49;1.40;;;1.30;;
6787;SDS011;3431;47.966;10.268;2024-01-06T00:32:10;1.50;;;1.50;;
6787;SDS011;3431;47.966;10.268;2024-01-06T00:32:32;1.40;;;1.40;;
6787;SDS011;3431;47.966;10.268;2024-01-06T00:32:55;1.50;;;1.40;;
6787;SDS011;3431;47.966;10.268;2024-01-06T00:33:16;1.38;;;1.27;;
6787;SDS011;3431;47.966;10.268;2024-01-06T00:33:38;1.25;;;1.15;;
6787;SDS011;3431;47.966;10.268;2024-01-06T00:33:59;1.30;;;1.30;;
6787;SDS011;3431;47.966;10.268;2024-01-06T00:34:21;1.60;;;1.50;;
6787;SDS011;3431;47.966;10.268;2024-01-06T00:34:43;2.08;;;1.50;;
6787;SDS011;3431;47.966;10.268;2024-01-06T00:35:05;1.63;;;1.52;;
6787;SDS011;3431;47.966;10.268;2024-01-06T00:35:27;1.63;;;1.52;;
6787;SDS011;3431;47.966;10.268;2024-01-06T00:35:48;1.45;;;1.35;;
6787;SDS011;3431;47.966;10.268;2024-01-06T00:36:10;1.30;;;1.20;;
6787;SDS011;3431;47.966;10.268;2024-01-06T00:36:32;1.60;;;1.40;;
6787;SDS011;3431;47.966;10.268;2024-01-06T00:36:54;1.63;;;1.40;;
6787;SDS011;3431;47.966;10.268;2024-01-06T00:37:15;1.40;;;1.30;;
6787;SDS011;3431;47.966;10.268;2024-01-06T00:37:37;1.45;;;1.40;;
6787;SDS011;3431;47.966;10.268;2024-01-06T00:37:58;1.70;;;1.60;;
6787;SDS011;3431;47.966;10.268;2024-01-06T00:38:21;1.50;;;1.40;;
6787;SDS011;3431;47.966;10.268;2024-01-06T00:38:43;1.20;;;1.20;;
6787;SDS011;3431;47.966;10.268;2024-01-06T00:39:05;1.20;;;1.20;;
6787;SDS011;3431;47.966;10.268;2024-01-06T00:39:26;1.38;;;1.30;;
6787;SDS011;3431;47.966;10.268;2024-01-06T00:39:48;1.25;;;1.25;;
6787;SDS011;3431;47.966;10.268;2024-01-06T00:40:10;1.20;;;1.20;;
6787;SDS011;3431;47.966;10.268;2024-01-06T00:40:32;1.48;;;1.38;;
6787;SDS011;3431;47.966;10.268;2024-01-06T00:40:54;1.35;;;1.27;;
6787;SDS011;3431;47.966;10.268;2024-01-06T00:41:16;1.50;;;1.40;;
6787;SDS011;3431;47.966;10.268;2024-01-06T00:41:37;1.50;;;1.40;;
6787;SDS011;3431;47.966;10.268;2024-01-06T00:41:59;1.52;;;1.42;;
6787;SDS011;3431;47.966;10.268;2024-01-06T00:42:20;1.58;;;1.48;;
6787;SDS011;3431;47.966;10.268;2024-01-06T00:42:42;1.63;;;1.52;;
6787;SDS011;3431;47.966;10.268;2024-01-06T00:43:04;1.60;;;1.50;;
6787;SDS011;3431;47.966;10.268;2024-01-06T00:43:26;1.52;;;1.42;;
6787;SDS011;3431;47.966;10.268;2024-01-06T00:43:47;1.60;;;1.50;;
6787;SDS011;3431;47.966;10.268;2024-01-06T00:44:09;1.50;;;1.50;;
6787;SDS011;3431;47.966;10.268;2024-01-06T00:44:33;1.30;;;1.30;;
6787;SDS011;3431;47.966;10.268;2024-01-06T00:44:57;1.30;;;1.30;;
6787;SDS011;3431;47.966;10.268;2024-01-06T00:45:19;1.58;;;1.50;;
6787;SDS011;3431;47.966;10.268;2024-01-06T00:45:40;1.48;;;1.38;;
6787;SDS011;3431;47.966;10.268;2024-01-06T00:46:02;1.25;;;1.20;;
6787;SDS011;3431;47.966;10.268;2024-01-06T00:46:24;1.70;;;1.60;;
6787;SDS011;3431;47.966;10.268;2024-01-06T00:46:45;1.75;;;1.65;;
6787;SDS011;3431;47.966;10.268;2024-01-06T00:47:08;1.40;;;1.30;;
6787;SDS011;3431;47.966;10.268;2024-01-06T00:47:29;1.50;;;1.40;;
6787;SDS011;3431;47.966;10.268;2024-01-06T00:47:51;1.50;;;1.40;;
6787;SDS011;3431;47.966;10.268;2024-01-06T00:48:12;1.45;;;1.35;;
6787;SDS011;3431;47.966;10.268;2024-01-06T00:48:34;1.40;;;1.30;;
6787;SDS011;3431;47.966;10.268;2024-01-06T00:48:56;1.38;;;1.30;;
6787;SDS011;3431;47.966;10.268;2024-01-06T00:49:18;1.60;;;1.50;;
6787;SDS011;3431;47.966;10.268;2024-01-06T00:49:39;1.20;;;1.20;;
6787;SDS011;3431;47.966;10.268;2024-01-06T00:50:01;1.48;;;1.38;;
6787;SDS011;3431;47.966;10.268;2024-01-06T00:50:23;1.53;;;1.47;;
6787;SDS011;3431;47.966;10.268;2024-01-06T00:50:44;1.40;;;1.40;;
6787;SDS011;3431;47.966;10.268;2024-01-06T00:51:07;1.35;;;1.35;;
6787;SDS011;3431;47.966;10.268;2024-01-06T00:51:28;1.40;;;1.40;;
6787;SDS011;3431;47.966;10.268;2024-01-06T00:51:50;1.40;;;1.30;;
6787;SDS011;3431;47.966;10.268;2024-01-06T00:52:11;1.45;;;1.35;;
6787;SDS011;3431;47.966;10.268;2024-01-06T00:52:33;1.50;;;1.40;;
6787;SDS011;3431;47.966;10.268;2024-01-06T00:52:54;1.55;;;1.45;;
6787;SDS011;3431;47.966;10.268;2024-01-06T00:53:17;1.40;;;1.30;;
6787;SDS011;3431;47.966;10.268;2024-01-06T00:53:38;1.52;;;1.42;;
6787;SDS011;3431;47.966;10.268;2024-01-06T00:54:00;1.55;;;1.45;;
6787;SDS011;3431;47.966;10.268;2024-01-06T00:54:21;1.50;;;1.40;;
6787;SDS011;3431;47.966;10.268;2024-01-06T00:54:43;1.52;;;1.42;;
6787;SDS011;3431;47.966;10.268;2024-01-06T00:55:05;1.45;;;1.35;;
6787;SDS011;3431;47.966;10.268;2024-01-06T00:55:27;1.42;;;1.35;;
6787;SDS011;3431;47.966;10.268;2024-01-06T00:55:49;1.58;;;1.48;;
6787;SDS011;3431;47.966;10.268;2024-01-06T00:56:10;1.50;;;1.40;;
6787;SDS011;3431;47.966;10.268;2024-01-06T00:56:32;1.20;;;1.20;;
6787;SDS011;3431;47.966;10.268;2024-01-06T00:56:54;1.40;;;1.30;;
6787;SDS011;3431;47.966;10.268;2024-01-06T00:57:16;1.50;;;1.40;;
6787;SDS011;3431;47.966;10.268;2024-01-06T00:57:37;1.60;;;1.50;;
6787;SDS011;3431;47.966;10.268;2024-01-06T00:57:59;1.30;;;1.30;;
6787;SDS011;3431;47.966;10.268;2024-01-06T00:58:21;1.42;;;1.33;;
6787;SDS011;3431;47.966;10.268;2024-01-06T00:58:43;1.13;;;1.13;;
6787;SDS011;3431;47.966;10.268;2024-01-06T00:59:05;1.20;;;1.20;;
6787;SDS011;3431;47.966;10.268;2024-01-06T00:59:26;1.52;;;1.42;;
6787;SDS011;3431;47.966;10.268;2024-01-06T00:59:49;1.33;;;1.23;;
6787;SDS011;3431;47.966;10.268;2024-01-06T01:00:11;1.42;;;1.20;;
6787;SDS011;3431;47.966;10.268;2024-01-06T01:00:34;1.30;;;1.20;;
6787;SDS011;3431;47.966;10.268;2024-01-06T01:00:56;1.35;;;1.27;;
6787;SDS011;3431;47.966;10.268;2024-01-06T01:01:17;1.40;;;1.40;;
6787;SDS011;3431;47.966;10.268;2024-01-06T01:01:39;1.20;;;1.20;;
6787;SDS011;3431;47.966;10.268;2024-01-06T01:02:00;1.30;;;1.30;;
6787;SDS011;3431;47.966;10.268;2024-01-06T01:02:23;1.40;;;1.40;;
6787;SDS011;3431;47.966;10.268;2024-01-06T01:02:44;1.30;;;1.30;;
6787;SDS011;3431;47.966;10.268;2024-01-06T01:03:06;1.40;;;1.40;;
6787;SDS011;3431;47.966;10.268;2024-01-06T01:03:28;1.25;;;1.25;;
6787;SDS011;3431;47.966;10.268;2024-01-06T01:03:50;1.83;;;1.30;;
6787;SDS011;3431;47.966;10.268;2024-01-06T01:04:12;1.43;;;1.33;;
6787;SDS011;3431;47.966;10.268;2024-01-06T01:04:33;1.50;;;1.40;;
6787;SDS011;3431;47.966;10.268;2024-01-06T01:04:55;1.40;;;1.30;;
6787;SDS011;3431;47.966;10.268;2024-01-06T01:05:18;1.60;;;1.50;;
6787;SDS011;3431;47.966;10.268;2024-01-06T01:05:40;1.38;;;1.27;;
6787;SDS011;3431;47.966;10.268;2024-01-06T01:06:02;1.30;;;1.20;;
6787;SDS011;3431;47.966;10.268;2024-01-06T01:06:24;1.40;;;1.30;;
6787;SDS011;3431;47.966;10.268;2024-01-06T01:06:45;1.35;;;1.25;;
6787;SDS011;3431;47.966;10.268;2024-01-06T01:07:07;1.20;;;1.20;;
6787;SDS011;3431;47.966;10.268;2024-01-06T01:07:28;1.20;;;1.20;;
6787;SDS011;3431;47.966;10.268;2024-01-06T01:07:51;1.60;;;1.50;;
6787;SDS011;3431;47.966;10.268;2024-01-06T01:08:13;1.40;;;1.37;;
6787;SDS011;3431;47.966;10.268;2024-01-06T01:08:34;1.23;;;1.23;;
6787;SDS011;3431;47.966;10.268;2024-01-06T01:08:56;1.33;;;1.33;;
6787;SDS011;3431;47.966;10.268;2024-01-06T01:09:18;1.20;;;1.20;;
6787;SDS011;3431;47.966;10.268;2024-01-06T01:09:39;1.30;;;1.30;;
6787;SDS011;3431;47.966;10.268;2024-01-06T01:10:02;1.50;;;1.40;;
6787;SDS011;3431;47.966;10.268;2024-01-06T01:10:25;1.50;;;1.40;;
6787;SDS011;3431;47.966;10.268;2024-01-06T01:10:47;1.73;;;1.63;;
6787;SDS011;3431;47.966;10.268;2024-01-06T01:11:08;1.73;;;1.63;;
6787;SDS011;3431;47.966;10.268;2024-01-06T01:11:30;1.85;;;1.67;;
6787;SDS011;3431;47.966;10.268;2024-01-06T01:11:52;1.50;;;1.40;;
6787;SDS011;3431;47.966;10.268;2024-01-06T01:12:14;1.27;;;1.27;;
6787;SDS011;3431;47.966;10.268;2024-01-06T01:12:36;1.13;;;1.13;;
6787;SDS011;3431;47.966;10.268;2024-01-06T01:12:58;1.42;;;1.33;;
6787;SDS011;3431;47.966;10.268;2024-01-06T01:13:19;1.42;;;1.33;;
6787;SDS011;3431;47.966;10.268;2024-01-06T01:13:41;1.10;;;1.10;;
6787;SDS011;3431;47.966;10.268;2024-01-06T01:14:02;1.25;;;1.25;;
6787;SDS011;3431;47.966;10.268;2024-01-06T01:14:25;1.30;;;1.20;;
6787;SDS011;3431;47.966;10.268;2024-01-06T01:14:46;1.25;;;1.20;;
6787;SDS011;3431;47.966;10.268;2024-01-06T01:15:09;1.38;;;1.27;;
6787;SDS011;3431;47.966;10.268;2024-01-06T01:15:31;1.33;;;1.30;;
6787;SDS011;3431;47.966;10.268;2024-01-06T01:15:52;1.45;;;1.35;;
6787;SDS011;3431;47.966;10.268;2024-01-06T01:16:14;1.47;;;1.37;;
6787;SDS011;3431;47.966;10.268;2024-01-06T01:16:37;1.33;;;1.23;;
6787;SDS011;3431;47.966;10.268;2024-01-06T01:16:58;1.17;;;1.17;;
6787;SDS011;3431;47.966;10.268;2024-01-06T01:17:20;1.88;;;1.35;;
6787;SDS011;3431;47.966;10.268;2024-01-06T01:17:41;1.52;;;1.42;;
6787;SDS011;3431;47.966;10.268;2024-01-06T01:18:04;1.58;;;1.48;;
6787;SDS011;3431;47.966;10.268;2024-01-06T01:18:26;1.42;;;1.33;;
6787;SDS011;3431;47.966;10.268;2024-01-06T01:18:48;1.10;;;1.10;;
6787;SDS011;3431;47.966;10.268;2024-01-06T01:19:09;1.35;;;1.25;;
6787;SDS011;3431;47.966;10.268;2024-01-06T01:19:31;1.63;;;1.30;;
6787;SDS011;3431;47.966;10.268;2024-01-06T01:19:52;1.40;;;1.30;;
6787;SDS011;3431;47.966;10.268;2024-01-06T01:20:14;1.40;;;1.30;;
6787;SDS011;3431;47.966;10.268;2024-01-06T01:20:36;1.35;;;1.30;;
6787;SDS011;3431;47.966;10.268;2024-01-06T01:20:58;1.20;;;1.20;;
6787;SDS011;3431;47.966;10.268;2024-01-06T01:21:19;1.38;;;1.38;;
6787;SDS011;3431;47.966;10.268;2024-01-06T01:21:41;1.38;;;1.30;;
6787;SDS011;3431;47.966;10.268;2024-01-06T01:22:02;1.52;;;1.42;;
6787;SDS011;3431;47.966;10.268;2024-01-06T01:22:24;1.98;;;1.63;;
6787;SDS011;3431;47.966;10.268;2024-01-06T01:22:47;1.33;;;1.23;;
6787;SDS011;3431;47.966;10.268;2024-01-06T01:23:08;1.30;;;1.20;;
6787;SDS011;3431;47.966;10.268;2024-01-06T01:23:30;1.35;;;1.17;;
6787;SDS011;3431;47.966;10.268;2024-01-06T01:23:51;1.63;;;1.52;;
6787;SDS011;3431;47.966;10.268;2024-01-06T01:24:13;1.60;;;1.50;;
6787;SDS011;3431;47.966;10.268;2024-01-06T01:24:34;1.50;;;1.30;;
6787;SDS011;3431;47.966;10.268;2024-01-06T01:24:57;1.42;;;1.33;;
6787;SDS011;3431;47.966;10.268;2024-01-06T01:25:19;1.45;;;1.35;;
6787;SDS011;3431;47.966;10.268;2024-01-06T01:25:40;1.60;;;1.50;;
6787;SDS011;3431;47.966;10.268;2024-01-06T01:26:02;1.35;;;1.35;;
6787;SDS011;3431;47.966;10.268;2024-01-06T01:26:24;1.15;;;1.15;;
6787;SDS011;3431;47.966;10.268;2024-01-06T01:26:46;1.42;;;1.40;;
6787;SDS011;3431;47.966;10.268;2024-01-06T01:27:08;1.40;;;1.40;;
6787;SDS011;3431;47.966;10.268;2024-01-06T01:27:30;1.20;;;1.20;;
6787;SDS011;3431;47.966;10.268;2024-01-06T01:27:51;1.20;;;1.20;;
6787;SDS011;3431;47.966;10.268;2024-01-06T01:28:14;1.37;;;1.27;;
6787;SDS011;3431;47.966;10.268;2024-01-06T01:28:35;1.40;;;1.33;;
6787;SDS011;3431;47.966;10.268;2024-01-06T01:28:57;1.35;;;1.35;;
6787;SDS011;3431;47.966;10.268;2024-01-06T01:29:18;1.50;;;1.40;;
6787;SDS011;3431;47.966;10.268;2024-01-06T01:29:40;1.50;;;1.40;;
6787;SDS011;3431;47.966;10.268;2024-01-06T01:30:02;1.42;;;1.33;;
6787;SDS011;3431;47.966;10.268;2024-01-06T01:30:28;1.50;;;1.40;;
6787;SDS011;3431;47.966;10.268;2024-01-06T01:30:49;1.65;;;1.55;;
6787;SDS011;3431;47.966;10.268;2024-01-06T01:31:11;1.25;;;1.23;;
6787;SDS011;3431;47.966;10.268;2024-01-06T01:31:33;1.20;;;1.20;;
6787;SDS011;3431;47.966;10.268;2024-01-06T01:31:55;1.40;;;1.30;;
6787;SDS011;3431;47.966;10.268;2024-01-06T01:32:17;1.30;;;1.30;;
6787;SDS011;3431;47.966;10.268;2024-01-06T01:32:39;1.30;;;1.30;;
6787;SDS011;3431;47.966;10.268;2024-01-06T01:33:00;1.40;;;1.30;;
6787;SDS011;3431;47.966;10.268;2024-01-06T01:33:22;1.40;;;1.30;;
6787;SDS011;3431;47.966;10.268;2024-01-06T01:33:43;1.35;;;1.35;;
6787;SDS011;3431;47.966;10.268;2024-01-06T01:34:06;1.10;;;1.10;;
6787;SDS011;3431;47.966;10.268;2024-01-06T01:34:27;1.30;;;1.30;;
6787;SDS011;3431;47.966;10.268;2024-01-06T01:34:49;1.50;;;1.50;;
6787;SDS011;3431;47.966;10.268;2024-01-06T01:35:10;1.10;;;1.10;;
6787;SDS011;3431;47.966;10.268;2024-01-06T01:35:32;1.20;;;1.20;;
6787;SDS011;3431;47.966;10.268;2024-01-06T01:35:53;1.45;;;1.42;;
6787;SDS011;3431;47.966;10.268;2024-01-06T01:36:16;1.50;;;1.40;;
6787;SDS011;3431;47.966;10.268;2024-01-06T01:36:39;1.40;;;1.30;;
6787;SDS011;3431;47.966;10.268;2024-01-06T01:37:01;1.10;;;1.10;;
6787;SDS011;3431;47.966;10.268;2024-01-06T01:37:22;1.45;;;1.35;;
6787;SDS011;3431;47.966;10.268;2024-01-06T01:37:44;1.70;;;1.60;;
6787;SDS011;3431;47.966;10.268;2024-01-06T01:38:07;2.55;;;1.48;;
6787;SDS011;3431;47.966;10.268;2024-01-06T01:38:28;2.30;;;1.43;;
6787;SDS011;3431;47.966;10.268;2024-01-06T01:38:50;1.50;;;1.40;;
6787;SDS011;3431;47.966;10.268;2024-01-06T01:39:12;1.38;;;1.38;;
6787;SDS011;3431;47.966;10.268;2024-01-06T01:39:33;1.35;;;1.35;;
6787;SDS011;3431;47.966;10.268;2024-01-06T01:39:56;1.50;;;1.40;;
6787;SDS011;3431;47.966;10.268;2024-01-06T01:40:18;1.73;;;1.63;;
6787;SDS011;3431;47.966;10.268;2024-01-06T01:40:39;1.50;;;1.40;;
6787;SDS011;3431;47.966;10.268;2024-01-06T01:41:01;1.42;;;1.33;;
6787;SDS011;3431;47.966;10.268;2024-01-06T01:41:23;1.60;;;1.50;;
6787;SDS011;3431;47.966;10.268;2024-01-06T01:41:46;1.70;;;1.60;;
6787;SDS011;3431;47.966;10.268;2024-01-06T01:42:07;1.70;;;1.60;;
6787;SDS011;3431;47.966;10.268;2024-01-06T01:42:30;1.73;;;1.63;;
6787;SDS011;3431;47.966;10.268;2024-01-06T01:42:51;1.77;;;1.58;;
6787;SDS011;3431;47.966;10.268;2024-01-06T01:43:16;1.83;;;1.70;;
6787;SDS011;3431;47.966;10.268;2024-01-06T01:43:39;1.60;;;1.50;;
6787;SDS011;3431;47.966;10.268;2024-01-06T01:44:00;1.63;;;1.52;;
6787;SDS011;3431;47.966;10.268;2024-01-06T01:44:22;1.63;;;1.52;;
6787;SDS011;3431;47.966;10.268;2024-01-06T01:44:43;1.63;;;1.52;;
6787;SDS011;3431;47.966;10.268;2024-01-06T01:45:05;1.63;;;1.52;;
6787;SDS011;3431;47.966;10.268;2024-01-06T01:45:29;1.60;;;1.50;;
6787;SDS011;3431;47.966;10.268;2024-01-06T01:45:53;1.70;;;1.60;;
6787;SDS011;3431;47.966;10.268;2024-01-06T01:46:15;1.65;;;1.55;;
6787;SDS011;3431;47.966;10.268;2024-01-06T01:46:36;2.53;;;1.52;;
6787;SDS011;3431;47.966;10.268;2024-01-06T01:46:58;2.08;;;1.60;;
6787;SDS011;3431;47.966;10.268;2024-01-06T01:47:20;2.08;;;1.70;;
6787;SDS011;3431;47.966;10.268;2024-01-06T01:47:43;1.52;;;1.42;;
6787;SDS011;3431;47.966;10.268;2024-01-06T01:48:06;1.70;;;1.60;;
6787;SDS011;3431;47.966;10.268;2024-01-06T01:48:28;1.60;;;1.50;;
6787;SDS011;3431;47.966;10.268;2024-01-06T01:48:49;1.70;;;1.60;;
6787;SDS011;3431;47.966;10.268;2024-01-06T01:49:11;1.70;;;1.60;;
6787;SDS011;3431;47.966;10.268;2024-01-06T01:49:34;1.70;;;1.60;;
6787;SDS011;3431;47.966;10.268;2024-01-06T01:49:56;1.70;;;1.60;;
6787;SDS011;3431;47.966;10.268;2024-01-06T01:50:18;1.60;;;1.50;;
6787;SDS011;3431;47.966;10.268;2024-01-06T01:50:41;1.63;;;1.52;;
6787;SDS011;3431;47.966;10.268;2024-01-06T01:51:02;1.70;;;1.60;;
6787;SDS011;3431;47.966;10.268;2024-01-06T01:51:26;1.63;;;1.52;;
6787;SDS011;3431;47.966;10.268;2024-01-06T01:51:50;1.83;;;1.73;;
6787;SDS011;3431;47.966;10.268;2024-01-06T01:52:12;1.50;;;1.40;;
6787;SDS011;3431;47.966;10.268;2024-01-06T01:52:35;1.60;;;1.50;;
6787;SDS011;3431;47.966;10.268;2024-01-06T01:52:57;1.75;;;1.65;;
6787;SDS011;3431;47.966;10.268;2024-01-06T01:53:19;1.95;;;1.85;;
6787;SDS011;3431;47.966;10.268;2024-01-06T01:53:44;1.70;;;1.60;;
6787;SDS011;3431;47.966;10.268;2024-01-06T01:54:06;1.80;;;1.70;;
6787;SDS011;3431;47.966;10.268;2024-01-06T01:54:28;1.90;;;1.80;;
6787;SDS011;3431;47.966;10.268;2024-01-06T01:54:50;2.13;;;1.75;;
6787;SDS011;3431;47.966;10.268;2024-01-06T01:55:13;1.92;;;1.83;;
6787;SDS011;3431;47.966;10.268;2024-01-06T01:55:36;1.80;;;1.70;;
6787;SDS011;3431;47.966;10.268;2024-01-06T01:55:57;1.55;;;1.50;;
6787;SDS011;3431;47.966;10.268;2024-01-06T01:56:19;1.80;;;1.70;;
6787;SDS011;3431;47.966;10.268;2024-01-06T01:56:42;1.52;;;1.50;;
6787;SDS011;3431;47.966;10.268;2024-01-06T01:57:04;1.65;;;1.55;;
6787;SDS011;3431;47.966;10.268;2024-01-06T01:57:26;1.65;;;1.55;;
6787;SDS011;3431;47.966;10.268;2024-01-06T01:57:49;1.70;;;1.60;;
6787;SDS011;3431;47.966;10.268;2024-01-06T01:58:11;1.60;;;1.50;;
6787;SDS011;3431;47.966;10.268;2024-01-06T01:58:33;1.55;;;1.50;;
6787;SDS011;3431;47.966;10.268;2024-01-06T01:58:55;1.90;;;1.80;;
6787;SDS011;3431;47.966;10.268;2024-01-06T01:59:18;1.90;;;1.80;;
6787;SDS011;3431;47.966;10.268;2024-01-06T01:59:39;1.83;;;1.73;;
6787;SDS011;3431;47.966;10.268;2024-01-06T02:00:01;1.85;;;1.75;;
6787;SDS011;3431;47.966;10.268;2024-01-06T02:00:34;1.77;;;1.67;;
6787;SDS011;3431;47.966;10.268;2024-01-06T02:00:55;1.63;;;1.52;;
6787;SDS011;3431;47.966;10.268;2024-01-06T02:01:17;1.58;;;1.48;;
6787;SDS011;3431;47.966;10.268;2024-01-06T02:01:39;1.60;;;1.50;;
6787;SDS011;3431;47.966;10.268;2024-01-06T02:02:02;1.60;;;1.50;;
6787;SDS011;3431;47.966;10.268;2024-01-06T02:02:24;1.70;;;1.60;;
6787;SDS011;3431;47.966;10.268;2024-01-06T02:02:46;1.88;;;1.77;;
6787;SDS011;3431;47.966;10.268;2024-01-06T02:03:08;1.77;;;1.67;;
6787;SDS011;3431;47.966;10.268;2024-01-06T02:03:31;1.77;;;1.67;;
6787;SDS011;3431;47.966;10.268;2024-01-06T02:03:54;1.70;;;1.60;;
6787;SDS011;3431;47.966;10.268;2024-01-06T02:04:16;1.77;;;1.67;;
6787;SDS011;3431;47.966;10.268;2024-01-06T02:04:38;1.60;;;1.50;;
6787;SDS011;3431;47.966;10.268;2024-01-06T02:05:00;1.60;;;1.50;;
6787;SDS011;3431;47.966;10.268;2024-01-06T02:05:21;1.60;;;1.50;;
6787;SDS011;3431;47.966;10.268;2024-01-06T02:05:43;1.90;;;1.80;;
6787;SDS011;3431;47.966;10.268;2024-01-06T02:06:05;1.60;;;1.50;;
6787;SDS011;3431;47.966;10.268;2024-01-06T02:06:26;1.65;;;1.55;;
6787;SDS011;3431;47.966;10.268;2024-01-06T02:06:49;1.90;;;1.80;;
6787;SDS011;3431;47.966;10.268;2024-01-06T02:07:10;1.83;;;1.73;;
6787;SDS011;3431;47.966;10.268;2024-01-06T02:07:32;1.80;;;1.70;;
6787;SDS011;3431;47.966;10.268;2024-01-06T02:07:53;1.50;;;1.45;;
6787;SDS011;3431;47.966;10.268;2024-01-06T02:08:15;1.55;;;1.45;;
6787;SDS011;3431;47.966;10.268;2024-01-06T02:08:38;1.60;;;1.50;;
6787;SDS011;3431;47.966;10.268;2024-01-06T02:09:00;1.70;;;1.60;;
6787;SDS011;3431;47.966;10.268;2024-01-06T02:09:21;1.60;;;1.50;;
6787;SDS011;3431;47.966;10.268;2024-01-06T02:09:47;1.58;;;1.50;;
6787;SDS011;3431;47.966;10.268;2024-01-06T02:10:09;1.70;;;1.60;;
6787;SDS011;3431;47.966;10.268;2024-01-06T02:10:32;1.80;;;1.70;;
6787;SDS011;3431;47.966;10.268;2024-01-06T02:10:53;1.67;;;1.58;;
6787;SDS011;3431;47.966;10.268;2024-01-06T02:11:15;1.55;;;1.48;;
6787;SDS011;3431;47.966;10.268;2024-01-06T02:11:37;1.85;;;1.75;;
6787;SDS011;3431;47.966;10.268;2024-01-06T02:11:59;1.67;;;1.58;;
6787;SDS011;3431;47.966;10.268;2024-01-06T02:12:20;1.50;;;1.50;;
6787;SDS011;3431;47.966;10.268;2024-01-06T02:12:43;1.60;;;1.50;;
6787;SDS011;3431;47.966;10.268;2024-01-06T02:13:09;1.50;;;1.40;;
6787;SDS011;3431;47.966;10.268;2024-01-06T02:13:32;1.55;;;1.45;;
6787;SDS011;3431;47.966;10.268;2024-01-06T02:13:55;1.33;;;1.33;;
6787;SDS011;3431;47.966;10.268;2024-01-06T02:14:17;1.45;;;1.42;;